Miamiville, Ohio
Current Conditions -  °F | °C
As of 11:53 AM on Friday 24 Oct 2014 (Local Time) from KLUK Reporting Station
Clear Clear  
Wind Chill: 58°   Ceiling: Unl
Heat Index: 58°   Visibility: 10mi
Dew Point: 46°   Wind: 0mph
Humidity: 65%   Direction: NA
Pressure: 30.13"   Gusts: NA
Location:  39.21°N, 84.3°W
Report Text: KLUK 241553Z 00000KT 10SM CLR 14/08 A3013 RMK AO2 SLP203 T01440078
Loading
Personal Weather Stations






























Interactive Weather Map
Tropical Storm Tracking
New forecast layout! Learn more

10-Day Weather Forecast

Advertisements
Track Severe Weather on mobile